createdAt,value
2022-12-07T00:01:17.508Z,100404.56
2022-12-07T00:04:19.368Z,100407.88
2022-12-07T00:07:26.327Z,100397.88
2022-12-07T00:10:29.539Z,100390.56
2022-12-07T00:13:32.027Z,100392.34
2022-12-07T00:16:34.114Z,100390.34
2022-12-07T00:19:35.981Z,100384.75
2022-12-07T00:22:37.890Z,100387.03
2022-12-07T00:25:39.704Z,100378.63
2022-12-07T00:28:41.532Z,100368.31
2022-12-07T00:31:43.424Z,100369.56
2022-12-07T00:34:45.331Z,100371.19
2022-12-07T00:37:47.128Z,100368.69
2022-12-07T00:41:15.475Z,100357.38
2022-12-07T00:44:17.309Z,100360.75
2022-12-07T00:47:19.155Z,100362.84
2022-12-07T00:50:20.965Z,100360.53
2022-12-07T00:53:22.859Z,100361.22
2022-12-07T00:56:25.753Z,100363.63
2022-12-07T00:59:27.643Z,100362.13
2022-12-07T01:02:29.467Z,100365.16
2022-12-07T01:05:31.284Z,100352.09
2022-12-07T01:08:33.409Z,100341.81
2022-12-07T01:11:35.301Z,100338.78
2022-12-07T01:14:37.202Z,100333.75
2022-12-07T01:17:39.059Z,100348.59
2022-12-07T01:20:41.270Z,100353.62
2022-12-07T01:23:43.149Z,100355.09
2022-12-07T01:26:44.964Z,100351.00
2022-12-07T01:29:46.863Z,100351.63
2022-12-07T01:32:48.719Z,100339.22
2022-12-07T01:35:50.513Z,100340.19
2022-12-07T01:38:53.714Z,100344.84
2022-12-07T01:41:55.605Z,100346.81
2022-12-07T01:45:16.270Z,100348.09
2022-12-07T01:48:18.714Z,100341.13
2022-12-07T01:51:20.511Z,100336.22
2022-12-07T01:54:22.364Z,100339.69
2022-12-07T01:57:24.265Z,100327.31
2022-12-07T02:00:26.133Z,100335.53
2022-12-07T02:03:54.237Z,100334.97
2022-12-07T02:06:56.113Z,100330.94
2022-12-07T02:09:57.973Z,100334.75
2022-12-07T02:13:04.379Z,100329.84
2022-12-07T02:16:06.327Z,100320.62
2022-12-07T02:19:14.224Z,100331.56
2022-12-07T02:22:34.625Z,100326.41
2022-12-07T02:25:39.436Z,100326.53
2022-12-07T02:28:59.362Z,100327.16
2022-12-07T02:32:04.682Z,100319.53
2022-12-07T02:35:07.645Z,100329.09
2022-12-07T02:38:17.465Z,100321.84
2022-12-07T02:41:21.395Z,100333.75
2022-12-07T02:44:24.496Z,100324.94
2022-12-07T02:47:26.371Z,100325.25
2022-12-07T02:50:28.581Z,100334.03
2022-12-07T02:53:34.236Z,100334.03
2022-12-07T02:56:45.170Z,100319.84
2022-12-07T02:59:49.818Z,100319.31
2022-12-07T03:02:55.771Z,100321.03
2022-12-07T03:06:03.428Z,100313.09
2022-12-07T03:09:12.371Z,100300.28
2022-12-07T03:12:15.578Z,100299.81
2022-12-07T03:15:20.726Z,100307.63
2022-12-07T03:18:23.008Z,100309.72
2022-12-07T03:21:27.399Z,100300.44
2022-12-07T03:24:30.475Z,100310.03
2022-12-07T03:27:33.884Z,100302.59
2022-12-07T03:30:56.295Z,100288.53
2022-12-07T03:34:13.433Z,100302.69
2022-12-07T03:37:41.257Z,100302.00
2022-12-07T03:40:43.046Z,100310.66
2022-12-07T03:43:44.896Z,100310.22
2022-12-07T03:46:55.901Z,100307.47
2022-12-07T03:50:05.803Z,100309.44
2022-12-07T03:53:26.819Z,100311.56
2022-12-07T03:56:28.657Z,100317.97
2022-12-07T03:59:30.558Z,100317.69
2022-12-07T04:02:32.459Z,100325.88
2022-12-07T04:05:34.307Z,100327.22
2022-12-07T04:08:36.173Z,100339.94
2022-12-07T04:11:38.023Z,100344.94
2022-12-07T04:14:39.835Z,100337.50
2022-12-07T04:17:41.600Z,100342.84
2022-12-07T04:20:43.753Z,100331.78
2022-12-07T04:23:45.596Z,100339.84
2022-12-07T04:26:47.413Z,100329.13
2022-12-07T04:29:49.233Z,100336.59
2022-12-07T04:32:51.042Z,100335.34
2022-12-07T04:35:52.968Z,100341.81
2022-12-07T04:38:55.816Z,100326.56
2022-12-07T04:41:58.017Z,100331.19
2022-12-07T04:44:59.841Z,100330.91
2022-12-07T04:48:01.650Z,100334.25
2022-12-07T04:51:04.535Z,100315.63
2022-12-07T04:54:06.405Z,100330.41
2022-12-07T04:57:08.285Z,100334.00
2022-12-07T05:00:10.412Z,100335.97
2022-12-07T05:03:12.200Z,100335.78
2022-12-07T05:06:14.298Z,100340.78
2022-12-07T05:09:16.155Z,100333.09
2022-12-07T05:12:17.990Z,100327.81
2022-12-07T05:15:19.842Z,100315.06
2022-12-07T05:18:21.880Z,100316.03
2022-12-07T05:21:23.679Z,100309.62
2022-12-07T05:24:25.548Z,100310.97
2022-12-07T05:27:27.397Z,100319.75
2022-12-07T05:30:29.285Z,100309.84
2022-12-07T05:33:31.129Z,100292.41
2022-12-07T05:36:32.926Z,100304.25
2022-12-07T05:39:34.713Z,100292.91
2022-12-07T05:42:36.503Z,100300.00
2022-12-07T05:45:38.364Z,100299.25
2022-12-07T05:48:40.172Z,100298.19
2022-12-07T05:51:41.977Z,100301.06
2022-12-07T05:54:43.868Z,100301.50
2022-12-07T05:58:05.659Z,100303.84
2022-12-07T06:01:07.448Z,100307.16
2022-12-07T06:04:09.336Z,100299.75
2022-12-07T06:07:12.199Z,100306.38
2022-12-07T06:10:14.135Z,100305.63
2022-12-07T06:13:15.970Z,100308.28
2022-12-07T06:16:17.851Z,100304.81
2022-12-07T06:19:19.881Z,100309.72
2022-12-07T06:22:21.707Z,100312.88
2022-12-07T06:25:23.551Z,100298.88
2022-12-07T06:28:25.865Z,100316.97
2022-12-07T06:31:27.819Z,100315.50
2022-12-07T06:34:29.719Z,100318.72
2022-12-07T06:37:31.699Z,100315.69
2022-12-07T06:40:33.590Z,100323.38
2022-12-07T06:47:58.798Z,100325.47
2022-12-07T06:51:17.559Z,100327.25
2022-12-07T06:54:23.061Z,100327.81
2022-12-07T06:57:31.111Z,100335.09
2022-12-07T07:00:49.532Z,100334.47
2022-12-07T07:03:54.013Z,100335.09
2022-12-07T07:07:00.247Z,100341.06
2022-12-07T07:10:04.621Z,100332.19
2022-12-07T07:13:12.890Z,100340.78
2022-12-07T07:16:25.383Z,100331.97
2022-12-07T07:19:29.309Z,100332.19
2022-12-07T07:22:51.043Z,100335.94
2022-12-07T07:25:54.148Z,100335.72
2022-12-07T07:28:57.150Z,100343.28
2022-12-07T07:32:06.502Z,100340.88
2022-12-07T07:35:22.090Z,100344.53
2022-12-07T07:38:36.127Z,100343.88
2022-12-07T07:42:04.761Z,100327.12
2022-12-07T07:45:25.365Z,100314.94
2022-12-07T07:48:40.575Z,100328.84
2022-12-07T07:55:22.114Z,100334.84
2022-12-07T07:58:39.864Z,100334.31
2022-12-07T08:01:56.103Z,100336.72
2022-12-07T08:05:21.985Z,100348.16
2022-12-07T08:08:33.614Z,100343.97
2022-12-07T08:11:49.143Z,100335.81
2022-12-07T08:14:57.366Z,100335.78
2022-12-07T08:18:08.782Z,100342.37
2022-12-07T08:21:32.392Z,100337.72
2022-12-07T08:28:04.709Z,100355.16
2022-12-07T08:31:39.711Z,100356.16
2022-12-07T08:34:49.285Z,100351.28
2022-12-07T08:37:58.307Z,100353.13
2022-12-07T08:41:05.020Z,100361.31
2022-12-07T08:44:28.142Z,100363.19
2022-12-07T08:48:00.480Z,100363.38
2022-12-07T08:51:15.409Z,100359.37
2022-12-07T08:55:06.548Z,100362.56
2022-12-07T08:58:15.666Z,100362.47
2022-12-07T09:01:52.770Z,100358.69
2022-12-07T09:08:48.127Z,100359.44
2022-12-07T09:12:01.751Z,100364.50
2022-12-07T09:15:11.527Z,100367.78
2022-12-07T09:18:26.686Z,100358.53
2022-12-07T09:21:32.137Z,100353.34
2022-12-07T09:24:50.506Z,100349.13
2022-12-07T09:31:24.266Z,100335.41
2022-12-07T09:34:30.703Z,100335.50
2022-12-07T09:37:38.891Z,100345.03
2022-12-07T09:40:48.090Z,100340.41
2022-12-07T09:43:58.185Z,100339.34
2022-12-07T09:47:11.631Z,100343.62
2022-12-07T09:50:27.732Z,100329.16
2022-12-07T09:53:46.038Z,100330.41
2022-12-07T09:56:56.855Z,100328.41
2022-12-07T10:00:16.114Z,100325.03
2022-12-07T10:03:43.827Z,100321.34
2022-12-07T10:07:06.357Z,100316.41
2022-12-07T10:11:02.956Z,100322.81
2022-12-07T10:15:06.254Z,100318.47
2022-12-07T10:18:18.891Z,100315.13
2022-12-07T10:21:27.311Z,100308.78
2022-12-07T10:24:31.294Z,100300.84
2022-12-07T10:27:41.983Z,100300.75
2022-12-07T10:30:54.975Z,100302.06
2022-12-07T10:34:06.504Z,100308.00
2022-12-07T10:37:15.098Z,100299.91
2022-12-07T10:40:46.225Z,100299.38
2022-12-07T10:47:38.084Z,100291.56
2022-12-07T10:51:02.411Z,100281.94
2022-12-07T10:54:52.371Z,100291.53
2022-12-07T10:58:03.808Z,100284.84
2022-12-07T11:01:13.619Z,100295.09
2022-12-07T11:04:18.633Z,100284.94
2022-12-07T11:07:25.065Z,100292.03
2022-12-07T11:10:27.038Z,100290.66
2022-12-07T11:13:30.535Z,100278.28
2022-12-07T11:16:41.271Z,100279.50
2022-12-07T11:19:55.342Z,100282.16
2022-12-07T11:23:03.571Z,100274.94
2022-12-07T11:26:05.439Z,100270.03
2022-12-07T11:29:20.928Z,100268.50
2022-12-07T11:32:42.063Z,100255.69
2022-12-07T11:35:44.376Z,100264.09
2022-12-07T11:38:52.109Z,100273.75
2022-12-07T11:41:55.917Z,100268.88
2022-12-07T11:44:59.845Z,100267.81
2022-12-07T11:48:04.906Z,100267.09
2022-12-07T11:51:07.934Z,100268.13
2022-12-07T11:54:15.462Z,100275.44
2022-12-07T11:57:20.649Z,100275.41
2022-12-07T12:00:22.524Z,100279.03
2022-12-07T12:03:31.501Z,100287.03
2022-12-07T12:06:36.239Z,100279.03
2022-12-07T12:09:51.985Z,100263.63
2022-12-07T12:16:38.939Z,100249.69
2022-12-07T12:19:46.825Z,100254.28
2022-12-07T12:22:51.496Z,100249.22
2022-12-07T12:25:54.230Z,100238.53
2022-12-07T12:28:56.261Z,100234.44
2022-12-07T12:32:17.700Z,100219.00
2022-12-07T12:35:19.711Z,100211.75
2022-12-07T12:38:32.196Z,100208.31
2022-12-07T12:41:37.362Z,100206.19
2022-12-07T12:44:40.332Z,100195.00
2022-12-07T12:47:44.347Z,100199.53
2022-12-07T12:50:46.182Z,100202.03
2022-12-07T12:53:48.024Z,100197.94
2022-12-07T12:57:08.391Z,100203.50
2022-12-07T13:00:16.651Z,100207.41
2022-12-07T13:03:28.496Z,100212.44
2022-12-07T13:06:36.680Z,100223.97
2022-12-07T13:09:38.603Z,100228.09
2022-12-07T13:12:40.474Z,100225.19
2022-12-07T13:15:43.703Z,100235.81
2022-12-07T13:18:45.784Z,100237.03
2022-12-07T13:21:47.602Z,100236.19
2022-12-07T13:24:49.625Z,100237.41
2022-12-07T13:28:11.984Z,100240.59
2022-12-07T13:31:14.156Z,100243.09
2022-12-07T13:34:35.551Z,100248.09
2022-12-07T13:37:38.949Z,100240.78
2022-12-07T13:40:41.089Z,100235.34
2022-12-07T13:43:43.827Z,100248.59
2022-12-07T13:47:04.502Z,100236.44
2022-12-07T13:50:23.142Z,100244.63
2022-12-07T13:53:25.686Z,100241.00
2022-12-07T13:56:28.709Z,100264.59
2022-12-07T13:59:34.256Z,100260.06
2022-12-07T14:02:39.939Z,100259.09
2022-12-07T14:05:45.072Z,100264.00
2022-12-07T14:08:46.963Z,100268.53
2022-12-07T14:11:49.132Z,100263.75
2022-12-07T14:14:51.015Z,100257.44
2022-12-07T14:17:53.363Z,100256.16
2022-12-07T14:21:10.899Z,100258.09
2022-12-07T14:24:20.335Z,100255.53
2022-12-07T14:27:23.429Z,100260.69
2022-12-07T14:30:30.400Z,100258.09
2022-12-07T14:33:32.427Z,100262.84
2022-12-07T14:36:34.310Z,100264.94
2022-12-07T14:39:41.726Z,100260.78
2022-12-07T14:42:44.613Z,100262.34
2022-12-07T14:45:46.829Z,100265.53
2022-12-07T14:55:43.746Z,100275.91
2022-12-07T14:58:45.756Z,100275.44
2022-12-07T15:01:47.900Z,100280.81
2022-12-07T15:04:49.884Z,100282.72
2022-12-07T15:07:52.353Z,100291.28
2022-12-07T15:10:54.365Z,100278.06
2022-12-07T15:14:14.692Z,100279.41
2022-12-07T15:17:27.827Z,100285.59
2022-12-07T15:20:33.455Z,100292.22
2022-12-07T15:23:35.824Z,100290.19
2022-12-07T15:26:37.997Z,100286.91
2022-12-07T15:29:40.331Z,100296.22
2022-12-07T15:32:42.244Z,100290.25
2022-12-07T15:35:45.006Z,100296.19
2022-12-07T15:39:13.204Z,100299.31
2022-12-07T15:42:09.165Z,100305.13
2022-12-07T15:45:11.203Z,100316.03
2022-12-07T15:48:29.506Z,100310.66
2022-12-07T15:51:31.796Z,100321.25
2022-12-07T15:54:33.937Z,100319.97
2022-12-07T15:57:36.642Z,100321.75
2022-12-07T16:00:38.724Z,100319.44
2022-12-07T16:03:40.620Z,100319.78
2022-12-07T16:06:42.587Z,100320.19
2022-12-07T16:09:44.655Z,100321.00
2022-12-07T16:12:46.532Z,100316.56
2022-12-07T16:15:48.627Z,100321.22
2022-12-07T16:18:51.184Z,100317.94
2022-12-07T16:21:53.341Z,100317.72
2022-12-07T16:24:55.395Z,100315.03
2022-12-07T16:27:57.446Z,100311.28
2022-12-07T16:31:03.558Z,100315.22
2022-12-07T16:34:05.631Z,100313.66
2022-12-07T16:37:07.524Z,100316.28
2022-12-07T16:40:10.196Z,100311.59
2022-12-07T16:43:12.653Z,100317.56
2022-12-07T16:46:16.001Z,100320.06
2022-12-07T16:49:18.228Z,100319.84
2022-12-07T16:52:21.403Z,100309.09
2022-12-07T16:55:23.522Z,100328.72
2022-12-07T16:58:25.391Z,100322.75
2022-12-07T17:01:29.389Z,100319.06
2022-12-07T17:04:31.518Z,100318.56
2022-12-07T17:07:33.514Z,100314.00
2022-12-07T17:10:36.670Z,100326.16
2022-12-07T17:13:57.270Z,100336.25
2022-12-07T17:17:01.616Z,100331.78
2022-12-07T17:20:04.923Z,100340.72
2022-12-07T17:23:06.897Z,100336.97
2022-12-07T17:26:09.975Z,100338.91
2022-12-07T17:29:12.906Z,100339.44
2022-12-07T17:32:15.048Z,100336.69
2022-12-07T17:35:17.034Z,100334.34
2022-12-07T17:38:19.118Z,100330.62
2022-12-07T17:41:40.956Z,100335.56
2022-12-07T17:44:42.922Z,100336.34
2022-12-07T17:47:45.003Z,100337.25
2022-12-07T17:51:05.432Z,100332.53
2022-12-07T17:54:07.321Z,100350.47
2022-12-07T17:57:09.432Z,100328.56
2022-12-07T18:00:12.220Z,100346.53
2022-12-07T18:03:14.241Z,100351.91
2022-12-07T18:06:16.200Z,100355.44
2022-12-07T18:09:18.052Z,100358.47
2022-12-07T18:12:19.957Z,100362.16
2022-12-07T18:15:21.826Z,100356.50
2022-12-07T18:18:23.691Z,100364.69
2022-12-07T18:21:26.175Z,100364.72
2022-12-07T18:24:34.815Z,100357.72
2022-12-07T18:27:38.603Z,100364.00
2022-12-07T18:31:13.057Z,100366.16
2022-12-07T18:34:08.927Z,100358.47
2022-12-07T18:37:11.067Z,100361.63
2022-12-07T18:40:13.211Z,100352.37
2022-12-07T18:43:15.561Z,100346.47
2022-12-07T18:46:20.777Z,100351.66
2022-12-07T18:49:22.683Z,100349.09
2022-12-07T18:52:24.549Z,100344.34
2022-12-07T18:55:26.912Z,100345.03
2022-12-07T18:58:28.789Z,100353.47
2022-12-07T19:01:31.004Z,100364.59
2022-12-07T19:04:33.102Z,100363.66
2022-12-07T19:07:35.253Z,100365.87
2022-12-07T19:10:37.531Z,100373.31
2022-12-07T19:13:39.608Z,100377.16
2022-12-07T19:16:42.251Z,100376.53
2022-12-07T19:19:45.022Z,100380.22
2022-12-07T19:22:46.878Z,100376.66
2022-12-07T19:25:48.757Z,100377.09
2022-12-07T19:28:50.750Z,100372.31
2022-12-07T19:31:52.603Z,100379.06
2022-12-07T19:34:56.268Z,100372.53
2022-12-07T19:37:58.117Z,100369.66
2022-12-07T19:41:06.810Z,100372.78
2022-12-07T19:44:12.874Z,100371.47
2022-12-07T19:47:17.263Z,100376.37
2022-12-07T19:50:19.172Z,100368.81
2022-12-07T19:53:21.076Z,100374.09
2022-12-07T19:56:22.957Z,100378.16
2022-12-07T19:59:25.823Z,100365.47
2022-12-07T20:02:27.757Z,100376.66
2022-12-07T20:05:29.684Z,100385.53
2022-12-07T20:08:31.529Z,100384.88
2022-12-07T20:11:51.860Z,100383.16
2022-12-07T20:14:53.838Z,100380.78
2022-12-07T20:17:55.660Z,100382.56
2022-12-07T20:20:58.507Z,100384.53
2022-12-07T20:24:01.125Z,100383.72
2022-12-07T20:27:03.575Z,100390.09
2022-12-07T20:30:05.877Z,100388.06
2022-12-07T20:33:07.912Z,100389.75
2022-12-07T20:36:12.673Z,100387.72
2022-12-07T20:39:14.575Z,100392.19
2022-12-07T20:42:35.648Z,100405.75
2022-12-07T20:45:43.592Z,100395.03
2022-12-07T20:48:45.598Z,100399.91
2022-12-07T20:51:47.757Z,100395.59
2022-12-07T20:54:49.742Z,100400.84
2022-12-07T20:57:51.584Z,100402.19
2022-12-07T21:00:53.472Z,100388.81
2022-12-07T21:03:55.844Z,100397.22
2022-12-07T21:06:57.798Z,100398.06
2022-12-07T21:09:59.672Z,100412.16
2022-12-07T21:13:01.504Z,100407.50
2022-12-07T21:16:10.866Z,100407.19
2022-12-07T21:19:12.997Z,100400.59
2022-12-07T21:22:14.874Z,100398.78
2022-12-07T21:25:16.763Z,100395.56
2022-12-07T21:28:18.617Z,100399.44
2022-12-07T21:31:21.223Z,100404.56
2022-12-07T21:34:23.409Z,100400.06
2022-12-07T21:37:25.317Z,100405.19
2022-12-07T21:40:27.319Z,100403.72
2022-12-07T21:43:29.150Z,100387.22
2022-12-07T21:46:34.076Z,100403.34
2022-12-07T21:49:36.637Z,100403.06
2022-12-07T21:52:38.649Z,100412.41
2022-12-07T21:55:41.078Z,100412.16
2022-12-07T21:58:43.229Z,100415.88
2022-12-07T22:01:47.507Z,100422.59
2022-12-07T22:04:49.450Z,100422.53
2022-12-07T22:07:51.341Z,100415.19
2022-12-07T22:10:53.159Z,100405.84
2022-12-07T22:14:13.621Z,100414.03
2022-12-07T22:17:15.454Z,100422.38
2022-12-07T22:20:17.828Z,100423.59
2022-12-07T22:23:19.741Z,100413.06
2022-12-07T22:26:24.545Z,100404.47
2022-12-07T22:29:26.844Z,100399.37
2022-12-07T22:35:54.129Z,100384.81
2022-12-07T22:38:56.040Z,100390.59
2022-12-07T22:41:57.893Z,100402.00
2022-12-07T22:44:59.824Z,100394.59
2022-12-07T22:48:01.784Z,100404.31
2022-12-07T22:51:03.916Z,100407.09
2022-12-07T22:54:07.482Z,100408.34
2022-12-07T22:57:09.355Z,100406.06
2022-12-07T23:00:11.528Z,100392.19
2022-12-07T23:03:13.941Z,100396.22
2022-12-07T23:06:17.369Z,100405.44
2022-12-07T23:09:19.194Z,100413.41
2022-12-07T23:12:39.898Z,100409.31
2022-12-07T23:15:41.718Z,100402.34
2022-12-07T23:18:43.568Z,100408.47
2022-12-07T23:21:45.453Z,100403.47
2022-12-07T23:24:47.261Z,100402.25
2022-12-07T23:27:49.106Z,100381.41
2022-12-07T23:30:50.963Z,100395.69
2022-12-07T23:33:52.797Z,100394.81
2022-12-07T23:36:54.788Z,100404.97
2022-12-07T23:39:56.595Z,100399.47
2022-12-07T23:42:58.697Z,100406.56
2022-12-07T23:46:00.615Z,100404.03
2022-12-07T23:49:03.163Z,100406.09
2022-12-07T23:52:05.263Z,100406.50
2022-12-07T23:55:07.438Z,100399.84
2022-12-07T23:58:09.328Z,100398.00
